Noord Nederlandse Zweefvliegclub

NL-0036 · Groningue, Pays-Bas

METAR anciennes NL-0036 · Noord Nederlandse Zweefvliegclub

Tu vois ci-dessous les METAR des derniers jours. Sélectionne une année pour parcourir les METAR plus anciens, à partir de l'année 2007.

31 mars 2023

Temps Code Temps Temp. Vue Base cloud Vent METAR/SPECI
15:20
M
13 °C 10 km+ 2.300 ft 220° 220° 12 kt METAR EDDW 311320Z AUTO 22012KT 9999 VCSH BKN023 BKN043 FEW///TCU 13/09 Q0993 TEMPO SHRA BKN013CB
10:36
M
11 °C 10 km+ 1.500 ft 160° 160° 6 kt SPECI ETND 310836Z 16006KT 9999 VCSH FEW012 BKN015 BKN030 11/09 Q0996 WHT
10:20
M
10 °C 10 km+ 3.000 ft 130° 130° 5 kt METAR ETND 310820Z 13005KT 9999 VCSH FEW012 SCT015 BKN030 10/10 Q0996 BLU
09:40
M
10 °C 8 km 3.000 ft 150° 150° 6 kt SPECI ETND 310740Z 15006KT 8000 -RA FEW013 SCT015 BKN030 10/10 Q0996 BLU
09:20
M
10 °C 5 km 1.300 ft 160° 160° 7 kt METAR ETND 310720Z 16007KT 5000 -RADZ BR SCT010 BKN013 OVC045 10/09 Q0997 RERA GRN
08:43
M
10 °C 5 km 1.300 ft 180° 180° 6 kt METAR ETND 310643Z 18006KT 5000 RADZ BR SCT010 BKN013 OVC045 10/09 Q0997 GRN
08:20
M
9 °C 8 km 1.300 ft 180° 180° 7 kt METAR ETND 310620Z 18007KT 8000 -RA FEW010 BKN013 OVC045 09/09 Q0998 GRN
07:20
M
9 °C 8 km 1.600 ft 190° 190° 8 kt METAR ETND 310520Z 19008KT 8000 -RA FEW007 BKN016 BKN040 09/09 Q0998 WHT
06:20
M
9 °C 9 km 3.000 ft 180° 180° 5 kt METAR ETND 310420Z 18005KT 9000 -RA BKN030 BKN060 OVC100 09/08 Q1000 BLU

30 mars 2023

Temps Code Temps Temp. Vue Base cloud Vent METAR/SPECI
15:20
V
15 °C 10 km+ 6.000 ft 260° 260° 20 kt METAR ETND 301320Z 26020KT 9999 VCSH SCT030TCU BKN060 15/07 Q1004 BLU
14:20
M
14 °C 10 km+ 3.000 ft 250° 250° 14 kt METAR ETND 301220Z 25014KT 9999 VCSH FEW026CB BKN030 14/09 Q1004 BLU
13:20
M
13 °C 10 km+ 2.900 ft 250° 250° 18 kt METAR ETND 301120Z 25018KT 9999 -SHRA BKN029TCU 13/09 Q1004 BLU
12:20
M
15 °C 10 km+ 3.000 ft 240° 240° 16 kt METAR ETND 301020Z 24016KT 9999 VCSH FEW023TCU BKN030 BKN090 15/09 Q1004 BLU
11:20
M
14 °C 10 km+ 2.500 ft 240° 240° 18 kt METAR ETND 300920Z 24018KT 9999 VCSH FEW022TCU BKN025 14/09 Q1004 BLU
10:20
V
14 °C 10 km+ - 230° 230° 17 kt METAR ETND 300820Z 23017KT 9999 VCSH FEW020TCU SCT039 14/09 Q1003 BLU+
09:20
V
14 °C 10 km+ 6.500 ft 220° 220° 9 kt METAR ETND 300720Z 22009KT 9999 SCT036 BKN065 14/09 Q1003 BLU
08:20
V
12 °C 10 km+ 4.000 ft 210° 210° 7 kt METAR ETND 300620Z 21007KT 9999 BKN040 SCT070 12/08 Q1003 BLU
07:20
V
12 °C 10 km+ 4.000 ft 210° 210° 6 kt METAR ETND 300520Z 21006KT 9999 BKN040 12/08 Q1003 BLU
06:20
V
12 °C 10 km+ 4.000 ft 210° 210° 7 kt METAR ETND 300420Z 21007KT 9999 BKN040 BKN100 12/08 Q1004 BLU

29 mars 2023

Temps Code Temps Temp. Vue Base cloud Vent METAR/SPECI
15:20
M
10 °C 10 km+ 1.100 ft 190° 190° 11 kt METAR ETND 291320Z 19011KT 9999 BKN011 BKN046 10/08 Q1013 GRN
14:20
M
11 °C 10 km+ 1.500 ft 190° 190° 11 kt METAR ETND 291220Z 19011KT 9999 FEW010 BKN015 BKN049 11/07 Q1014 WHT
13:20
V
10 °C 10 km+ 4.200 ft 210° 210° 11 kt METAR ETND 291120Z 21011KT 9999 FEW010 SCT015 BKN042 10/06 Q1014 BLU
13:11
V
9 °C 8 km 4.200 ft 210° 210° 12 kt METAR ETND 291111Z 21012KT 8000 FEW010 SCT015 BKN042 09/06 Q1014 BLU
12:20
M
8 °C 7 km 1.500 ft 200° 200° 9 kt METAR ETND 291020Z 20009KT 7000 FEW007 OVC015 08/07 Q1015 WHT
11:20
M
7 °C 5 km 1.500 ft 200° 200° 7 kt METAR ETND 290920Z 20007KT 5000 -RADZ BR FEW007 OVC015 07/06 Q1015 WHT
10:49
M
6 °C 8 km 1.500 ft 200° 200° 6 kt METAR ETND 290849Z 20006KT 8000 FEW010 BKN015 OVC020 06/06 Q1015 WHT
10:20
M
6 °C 5 km 1.500 ft 220° 220° 8 kt METAR ETND 290820Z 22008KT 5000 -RADZ BR FEW010 BKN015 OVC020 06/05 Q1015 WHT

Nous et des tiers suivons ton comportement Internet sur notre site Web à l'aide de cookies. Si tu continues, nous supposons que tu es d'accord avec notre Politique en matière de cookies.